createdAt,value
2017-12-24T00:00:29.931Z,6.10
2017-12-24T00:02:57.484Z,6.45
2017-12-24T00:05:25.034Z,5.60
2017-12-24T00:07:52.621Z,6.00
2017-12-24T00:10:20.201Z,5.53
2017-12-24T00:12:48.556Z,6.68
2017-12-24T00:15:16.113Z,5.65
2017-12-24T00:17:43.699Z,6.62
2017-12-24T00:20:11.288Z,6.10
2017-12-24T00:22:39.632Z,6.10
2017-12-24T00:25:07.987Z,6.60
2017-12-24T00:27:35.573Z,6.65
2017-12-24T00:30:03.980Z,6.12
2017-12-24T00:32:31.554Z,7.47
2017-12-24T00:34:59.179Z,6.30
2017-12-24T00:37:27.488Z,6.70
2017-12-24T00:39:55.080Z,6.43
2017-12-24T00:42:22.666Z,6.65
2017-12-24T00:44:51.015Z,6.47
2017-12-24T00:47:18.624Z,5.50
2017-12-24T00:49:46.213Z,6.62
2017-12-24T00:52:13.799Z,5.82
2017-12-24T00:54:41.387Z,6.20
2017-12-24T00:57:09.702Z,6.80
2017-12-24T00:59:37.294Z,5.60
2017-12-24T01:02:04.845Z,6.40
2017-12-24T01:04:32.360Z,6.03
2017-12-24T01:06:59.944Z,6.07
2017-12-24T01:09:27.530Z,6.97
2017-12-24T01:11:55.077Z,5.70
2017-12-24T01:14:22.627Z,6.40
2017-12-24T01:16:50.181Z,6.70
2017-12-24T01:19:17.767Z,6.68
2017-12-24T01:21:45.352Z,5.65
2017-12-24T01:24:12.943Z,6.40
2017-12-24T01:26:40.523Z,6.00
2017-12-24T01:29:08.156Z,5.53
2017-12-24T01:31:36.499Z,5.35
2017-12-24T01:34:04.056Z,6.30
2017-12-24T01:36:31.650Z,6.18
2017-12-24T01:38:59.961Z,6.30
2017-12-24T01:41:27.517Z,5.97
2017-12-24T01:43:55.108Z,5.75
2017-12-24T01:46:22.703Z,5.90
2017-12-24T01:48:51.018Z,6.00
2017-12-24T01:51:18.602Z,6.15
2017-12-24T01:53:46.181Z,5.43
2017-12-24T01:56:13.728Z,5.78
2017-12-24T01:58:41.280Z,5.15
2017-12-24T02:01:08.836Z,5.30
2017-12-24T02:03:36.427Z,6.62
2017-12-24T02:06:04.046Z,5.40
2017-12-24T02:08:31.635Z,5.35
2017-12-24T02:10:59.226Z,5.82
2017-12-24T02:13:27.579Z,5.47
2017-12-24T02:15:55.168Z,5.20
2017-12-24T02:18:23.481Z,5.28
2017-12-24T02:20:51.075Z,5.93
2017-12-24T02:23:18.667Z,5.70
2017-12-24T02:25:46.261Z,5.25
2017-12-24T02:28:13.825Z,5.10
2017-12-24T02:30:41.378Z,5.05
2017-12-24T02:33:08.939Z,5.60
2017-12-24T02:35:36.490Z,5.10
2017-12-24T02:38:04.079Z,6.00
2017-12-24T02:40:31.666Z,5.03
2017-12-24T02:42:59.246Z,5.75
2017-12-24T02:45:27.639Z,5.47
2017-12-24T02:47:55.178Z,4.87
2017-12-24T02:50:23.502Z,5.32
2017-12-24T02:52:51.092Z,4.85
2017-12-24T02:55:18.649Z,5.45
2017-12-24T02:57:46.240Z,4.97
2017-12-24T03:00:14.607Z,5.10
2017-12-24T03:02:42.191Z,5.03
2017-12-24T03:05:09.776Z,4.90
2017-12-24T03:07:37.359Z,4.87
2017-12-24T03:10:04.947Z,4.32
2017-12-24T03:12:32.531Z,4.93
2017-12-24T03:15:00.117Z,5.15
2017-12-24T03:17:27.704Z,5.25
2017-12-24T03:19:55.328Z,5.22
2017-12-24T03:22:22.914Z,4.93
2017-12-24T03:24:50.490Z,4.85
2017-12-24T03:27:18.067Z,4.60
2017-12-24T03:29:45.648Z,4.72
2017-12-24T03:32:13.956Z,5.03
2017-12-24T03:34:41.523Z,4.68
2017-12-24T03:37:09.103Z,4.55
2017-12-24T03:39:36.682Z,5.35
2017-12-24T03:42:04.284Z,5.35
2017-12-24T03:44:31.867Z,5.00
2017-12-24T03:46:59.447Z,4.85
2017-12-24T03:49:27.036Z,4.20
2017-12-24T03:51:55.434Z,4.03
2017-12-24T03:54:23.015Z,4.53
2017-12-24T03:56:50.615Z,4.40
2017-12-24T03:59:18.164Z,4.70
2017-12-24T04:01:45.751Z,4.82
2017-12-24T04:04:13.340Z,4.72
2017-12-24T04:06:41.001Z,4.00
2017-12-24T04:09:09.336Z,4.57
2017-12-24T04:11:36.922Z,4.65
2017-12-24T04:14:05.275Z,4.65
2017-12-24T04:16:32.812Z,4.22
2017-12-24T04:19:00.362Z,4.12
2017-12-24T04:21:27.943Z,4.43
2017-12-24T04:23:55.523Z,4.30
2017-12-24T04:26:23.110Z,4.57
2017-12-24T04:28:51.424Z,4.65
2017-12-24T04:31:19.009Z,5.75
2017-12-24T04:33:46.597Z,4.60
2017-12-24T04:36:14.915Z,5.30
2017-12-24T04:38:42.494Z,4.87
2017-12-24T04:41:10.036Z,4.25
2017-12-24T04:43:37.627Z,5.10
2017-12-24T04:46:05.173Z,5.35
2017-12-24T04:48:32.759Z,4.47
2017-12-24T04:51:00.349Z,4.62
2017-12-24T04:53:27.941Z,4.65
2017-12-24T04:55:55.523Z,5.05
2017-12-24T04:58:23.103Z,4.78
2017-12-24T05:00:50.696Z,4.72
2017-12-24T05:03:18.282Z,4.70
2017-12-24T05:05:45.875Z,5.35
2017-12-24T05:08:13.458Z,5.18
2017-12-24T05:10:41.789Z,5.00
2017-12-24T05:13:09.328Z,5.22
2017-12-24T05:15:38.654Z,5.07
2017-12-24T05:18:07.156Z,4.97
2017-12-24T05:20:34.742Z,5.10
2017-12-24T05:23:03.095Z,5.45
2017-12-24T05:25:30.640Z,5.12
2017-12-24T05:27:58.227Z,5.35
2017-12-24T05:30:25.765Z,4.40
2017-12-24T05:32:53.527Z,5.10
2017-12-24T05:35:21.072Z,4.68
2017-12-24T05:37:48.625Z,5.35
2017-12-24T05:40:16.220Z,4.78
2017-12-24T05:42:43.803Z,5.32
2017-12-24T05:45:12.150Z,5.07
2017-12-24T05:47:39.696Z,4.95
2017-12-24T05:50:07.278Z,4.80
2017-12-24T05:52:34.907Z,4.97
2017-12-24T05:55:02.496Z,4.72
2017-12-24T05:57:30.094Z,5.78
2017-12-24T05:59:58.361Z,4.62
2017-12-24T06:02:26.676Z,4.93
2017-12-24T06:04:54.235Z,4.25
2017-12-24T06:07:21.823Z,4.70
2017-12-24T06:09:49.453Z,5.07
2017-12-24T06:12:20.163Z,5.15
2017-12-24T06:14:55.622Z,4.47
2017-12-24T06:17:23.251Z,4.97
2017-12-24T06:19:51.598Z,5.47
2017-12-24T06:22:19.188Z,4.70
2017-12-24T06:24:47.552Z,4.70
2017-12-24T06:27:15.140Z,4.47
2017-12-24T06:29:43.492Z,4.60
2017-12-24T06:32:11.096Z,4.30
2017-12-24T06:34:38.697Z,4.70
2017-12-24T06:37:06.283Z,4.70
2017-12-24T06:39:33.873Z,4.47
2017-12-24T06:42:01.503Z,4.90
2017-12-24T06:44:29.100Z,4.80
2017-12-24T06:46:56.680Z,3.60
2017-12-24T06:49:24.260Z,4.70
2017-12-24T06:51:51.839Z,4.60
2017-12-24T06:54:19.428Z,4.97
2017-12-24T06:56:47.747Z,5.30
2017-12-24T06:59:15.293Z,5.03
2017-12-24T07:01:42.848Z,6.10
2017-12-24T07:04:10.616Z,5.65
2017-12-24T07:06:38.198Z,5.32
2017-12-24T07:09:05.775Z,5.10
2017-12-24T07:11:33.359Z,4.62
2017-12-24T07:14:01.715Z,5.18
2017-12-24T07:16:29.303Z,5.70
2017-12-24T07:18:58.001Z,4.40
2017-12-24T07:21:25.601Z,5.07
2017-12-24T07:23:53.148Z,5.10
2017-12-24T07:26:20.701Z,5.28
2017-12-24T07:28:48.263Z,5.55
2017-12-24T07:31:15.844Z,5.43
2017-12-24T07:33:43.396Z,4.50
2017-12-24T07:36:10.978Z,4.70
2017-12-24T07:38:38.563Z,5.97
2017-12-24T07:41:06.917Z,5.35
2017-12-24T07:49:40.670Z,5.30
2017-12-24T07:52:14.824Z,5.53
2017-12-24T07:54:43.207Z,5.20
2017-12-24T07:57:10.839Z,4.93
2017-12-24T10:39:02.807Z,2.95
2017-12-24T10:41:30.769Z,2.97
2017-12-24T10:44:00.816Z,3.10
2017-12-24T10:46:29.090Z,3.10
2017-12-24T10:48:57.155Z,3.05
2017-12-24T10:51:24.951Z,2.60
2017-12-24T10:53:53.311Z,3.20
2017-12-24T10:56:28.412Z,3.03
2017-12-24T10:58:55.990Z,3.72
2017-12-24T11:01:23.582Z,2.75
2017-12-24T11:03:51.160Z,4.80
2017-12-24T11:06:19.507Z,3.20
2017-12-24T11:08:47.083Z,3.45
2017-12-24T11:11:15.431Z,2.70
2017-12-24T11:13:43.006Z,2.30
2017-12-24T11:16:23.284Z,2.30
2017-12-24T11:18:51.639Z,2.53
2017-12-24T11:21:19.227Z,2.55
2017-12-24T11:23:47.580Z,2.80
2017-12-24T11:26:15.156Z,3.37
2017-12-24T11:28:42.730Z,2.45
2017-12-24T11:31:10.302Z,2.37
2017-12-24T11:33:38.001Z,2.50
2017-12-24T11:36:05.611Z,2.80
2017-12-24T11:38:33.182Z,2.53
2017-12-24T11:41:12.742Z,2.35
2017-12-24T11:43:40.320Z,2.22
2017-12-24T11:46:07.898Z,2.25
2017-12-24T11:48:35.731Z,2.25
2017-12-24T11:51:03.322Z,2.22
2017-12-24T11:53:30.898Z,2.20
2017-12-24T11:55:58.470Z,2.22
2017-12-24T11:58:37.814Z,1.90
2017-12-24T12:01:05.631Z,1.60
2017-12-24T12:03:33.223Z,2.20
2017-12-24T12:06:01.567Z,2.15
2017-12-24T12:08:29.143Z,1.90
2017-12-24T12:10:56.739Z,1.83
2017-12-24T12:13:24.314Z,1.58
2017-12-24T12:15:51.930Z,1.67
2017-12-24T12:18:19.498Z,1.62
2017-12-24T12:20:47.110Z,1.40
2017-12-24T12:23:14.690Z,1.75
2017-12-24T12:25:42.269Z,1.60
2017-12-24T12:31:23.298Z,1.48
2017-12-24T12:33:50.955Z,1.48
2017-12-24T12:36:18.542Z,1.55
2017-12-24T12:38:56.027Z,1.30
2017-12-24T12:41:23.601Z,1.50
2017-12-24T12:43:51.227Z,1.60
2017-12-24T12:46:18.807Z,1.60
2017-12-24T12:48:46.435Z,1.40
2017-12-24T12:51:14.015Z,1.40
2017-12-24T12:53:41.702Z,1.62
2017-12-24T12:56:09.278Z,1.40
2017-12-24T12:58:36.854Z,1.60
2017-12-24T13:01:05.206Z,1.40
2017-12-24T13:03:32.779Z,1.20
2017-12-24T13:06:02.275Z,1.45
2017-12-24T13:08:29.846Z,1.70
2017-12-24T13:10:58.251Z,1.48
2017-12-24T13:13:25.839Z,1.30
2017-12-24T13:15:53.415Z,1.58
2017-12-24T13:18:20.996Z,1.27
2017-12-24T13:20:50.502Z,1.37
2017-12-24T13:23:18.850Z,1.50
2017-12-24T13:25:46.431Z,1.50
2017-12-24T13:28:14.003Z,1.60
2017-12-24T13:30:41.582Z,1.60
2017-12-24T13:33:22.059Z,1.20
2017-12-24T13:35:49.639Z,1.60
2017-12-24T13:38:17.259Z,1.23
2017-12-24T13:40:44.835Z,1.12
2017-12-24T13:43:18.158Z,1.30
2017-12-24T13:45:45.734Z,1.35
2017-12-24T13:48:13.363Z,1.30
2017-12-24T13:50:40.944Z,1.35
2017-12-24T13:53:08.532Z,1.20
2017-12-24T13:55:36.898Z,1.95
2017-12-24T13:58:04.479Z,1.40
2017-12-24T14:00:32.823Z,1.10
2017-12-24T14:03:00.399Z,1.42
2017-12-24T14:05:27.981Z,1.30
2017-12-24T14:07:55.558Z,1.52
2017-12-24T14:10:23.908Z,1.40
2017-12-24T14:12:51.491Z,1.35
2017-12-24T14:15:19.071Z,1.00
2017-12-24T14:17:57.075Z,1.30
2017-12-24T14:20:24.706Z,1.58
2017-12-24T14:22:52.291Z,8.65
2017-12-24T14:25:19.875Z,1.20
2017-12-24T14:27:47.455Z,1.40
2017-12-24T14:30:15.044Z,1.20
2017-12-24T14:32:48.674Z,1.70
2017-12-24T14:35:16.250Z,1.42
2017-12-24T14:37:43.828Z,1.30
2017-12-24T14:40:11.451Z,1.20
2017-12-24T14:42:39.039Z,1.20
2017-12-24T14:45:06.616Z,1.10
2017-12-24T14:47:35.026Z,1.33
2017-12-24T14:50:02.660Z,1.30
2017-12-24T14:52:31.033Z,1.33
2017-12-24T14:54:59.896Z,1.30
2017-12-24T14:57:27.490Z,1.17
2017-12-24T14:59:55.091Z,1.20
2017-12-24T15:02:22.727Z,1.30
2017-12-24T15:04:50.319Z,1.10
2017-12-24T15:07:17.974Z,1.40
2017-12-24T15:09:45.565Z,1.50
2017-12-24T15:12:13.148Z,1.40
2017-12-24T15:15:02.761Z,1.37
2017-12-24T15:17:30.349Z,1.40
2017-12-24T15:19:57.941Z,8.70
2017-12-24T15:22:25.597Z,8.10
2017-12-24T15:24:53.192Z,1.70
2017-12-24T15:27:20.788Z,1.40
2017-12-24T15:29:48.381Z,1.60
2017-12-24T15:32:16.740Z,1.42
2017-12-24T15:34:45.411Z,1.65
2017-12-24T15:37:12.996Z,1.40
2017-12-24T15:39:40.590Z,1.50
2017-12-24T15:42:08.177Z,1.95
2017-12-24T15:44:35.764Z,1.58
2017-12-24T15:47:03.395Z,1.70
2017-12-24T15:49:30.976Z,1.50
2017-12-24T15:51:58.566Z,1.42
2017-12-24T15:54:39.436Z,1.40
2017-12-24T15:57:07.032Z,1.70
2017-12-24T15:59:34.625Z,1.37
2017-12-24T16:02:02.228Z,1.62
2017-12-24T16:04:37.192Z,1.48
2017-12-24T16:07:04.792Z,1.80
2017-12-24T16:09:32.396Z,1.40
2017-12-24T16:12:00.001Z,1.60
2017-12-24T16:14:27.601Z,1.52
2017-12-24T16:16:55.211Z,1.60
2017-12-24T16:19:22.871Z,1.48
2017-12-24T16:21:50.477Z,1.40
2017-12-24T16:24:18.088Z,1.70
2017-12-24T16:26:45.698Z,1.60
2017-12-24T16:29:13.300Z,1.92
2017-12-24T16:31:40.897Z,1.80
2017-12-24T16:34:09.252Z,2.20
2017-12-24T16:36:36.832Z,1.60
2017-12-24T16:39:05.232Z,1.87
2017-12-24T16:41:34.823Z,1.77
2017-12-24T16:44:03.184Z,1.60
2017-12-24T16:46:30.773Z,1.70
2017-12-24T16:48:58.356Z,1.50
2017-12-24T16:51:25.960Z,1.80
2017-12-24T16:53:53.590Z,1.65
2017-12-24T16:56:21.208Z,1.60
2017-12-24T16:58:49.590Z,1.90
2017-12-24T17:01:17.192Z,1.70
2017-12-24T17:03:44.780Z,1.73
2017-12-24T17:06:12.372Z,1.80
2017-12-24T17:08:39.972Z,1.70
2017-12-24T17:14:07.780Z,1.80
2017-12-24T17:16:35.372Z,2.03
2017-12-24T17:19:03.224Z,1.75
2017-12-24T17:21:30.819Z,1.80
2017-12-24T17:23:59.180Z,7.50
2017-12-24T17:26:26.996Z,5.20
2017-12-24T17:28:56.635Z,3.40
2017-12-24T17:31:25.224Z,11.70
2017-12-24T17:33:53.204Z,17.45
2017-12-24T17:36:20.803Z,5.90
2017-12-24T17:38:48.390Z,3.25
2017-12-24T17:41:15.978Z,3.90
2017-12-24T17:43:43.560Z,3.80
2017-12-24T17:46:11.156Z,1.48
2017-12-24T17:48:38.748Z,1.92
2017-12-24T17:51:07.120Z,1.62
2017-12-24T17:53:34.711Z,1.58
2017-12-24T17:56:02.344Z,1.37
2017-12-24T17:58:30.701Z,2.30
2017-12-24T18:00:58.342Z,2.30
2017-12-24T18:03:25.934Z,2.05
2017-12-24T18:05:54.304Z,2.15
2017-12-24T18:08:21.896Z,1.50
2017-12-24T18:10:49.484Z,1.70
2017-12-24T18:13:17.069Z,1.20
2017-12-24T18:15:44.656Z,1.48
2017-12-24T18:18:13.013Z,1.33
2017-12-24T18:20:40.604Z,2.28
2017-12-24T18:23:08.236Z,1.80
2017-12-24T18:25:35.913Z,1.37
2017-12-24T18:28:04.268Z,1.80
2017-12-24T18:30:31.860Z,1.73
2017-12-24T18:32:59.464Z,1.65
2017-12-24T18:35:27.062Z,1.50
2017-12-24T18:37:54.647Z,1.87
2017-12-24T18:40:22.233Z,1.20
2017-12-24T18:42:49.812Z,1.45
2017-12-24T18:45:17.395Z,1.48
2017-12-24T18:47:45.757Z,1.40
2017-12-24T18:50:13.344Z,1.60
2017-12-24T18:52:41.701Z,1.48
2017-12-24T18:55:09.293Z,2.72
2017-12-24T18:57:36.882Z,2.12
2017-12-24T19:00:04.476Z,2.80
2017-12-24T19:02:32.069Z,2.70
2017-12-24T19:04:59.668Z,1.70
2017-12-24T19:07:27.251Z,1.85
2017-12-24T19:09:54.836Z,1.58
2017-12-24T19:12:23.192Z,1.80
2017-12-24T19:14:50.776Z,1.60
2017-12-24T19:17:19.180Z,1.85
2017-12-24T19:19:46.779Z,2.03
2017-12-24T19:25:08.693Z,1.48
2017-12-24T19:27:36.289Z,1.90
2017-12-24T19:30:03.918Z,1.55
2017-12-24T19:32:31.560Z,1.42
2017-12-24T19:34:59.144Z,1.70
2017-12-24T19:37:26.738Z,1.30
2017-12-24T19:39:55.148Z,1.60
2017-12-24T19:42:22.787Z,1.37
2017-12-24T19:44:50.362Z,1.50
2017-12-24T19:47:17.961Z,1.30
2017-12-24T19:49:45.544Z,1.55
2017-12-24T19:52:13.133Z,1.90
2017-12-24T19:54:41.505Z,1.50
2017-12-24T19:57:09.106Z,1.35
2017-12-24T19:59:36.699Z,1.33
2017-12-24T20:02:04.323Z,1.52
2017-12-24T20:04:31.920Z,1.50
2017-12-24T20:06:59.510Z,1.52
2017-12-24T20:09:27.879Z,1.40
2017-12-24T20:11:56.250Z,1.77
2017-12-24T20:14:24.919Z,1.30
2017-12-24T20:16:52.516Z,1.48
2017-12-24T20:19:20.535Z,1.40
2017-12-24T20:21:48.124Z,1.50
2017-12-24T20:24:16.483Z,1.50
2017-12-24T20:26:45.118Z,1.45
2017-12-24T20:29:12.720Z,1.60
2017-12-24T20:31:40.308Z,1.50
2017-12-24T20:34:07.904Z,1.27
2017-12-24T20:36:35.487Z,1.30
2017-12-24T20:39:03.105Z,1.52
2017-12-24T20:41:30.691Z,1.25
2017-12-24T20:43:58.304Z,1.35
2017-12-24T20:46:26.664Z,1.62
2017-12-24T20:48:55.064Z,1.48
2017-12-24T20:51:23.429Z,1.62
2017-12-24T20:53:51.032Z,2.00
2017-12-24T20:56:18.641Z,1.25
2017-12-24T20:58:46.234Z,1.40
2017-12-24T21:01:13.832Z,1.48
2017-12-24T21:03:41.418Z,1.95
2017-12-24T21:06:09.065Z,1.40
2017-12-24T21:08:36.667Z,1.50
2017-12-24T21:11:04.257Z,1.50
2017-12-24T21:13:31.853Z,1.90
2017-12-24T21:15:59.472Z,1.50
2017-12-24T21:18:27.077Z,1.48
2017-12-24T21:20:54.704Z,1.40
2017-12-24T21:23:22.288Z,1.35
2017-12-24T21:25:50.658Z,1.62
2017-12-24T21:28:25.684Z,1.50
2017-12-24T21:30:53.333Z,1.25
2017-12-24T21:33:20.929Z,1.20
2017-12-24T21:35:48.511Z,1.70
2017-12-24T21:38:16.124Z,1.40
2017-12-24T21:40:43.718Z,1.70
2017-12-24T21:43:11.310Z,1.42
2017-12-24T21:45:38.945Z,1.50
2017-12-24T21:48:06.530Z,1.75
2017-12-24T21:50:34.120Z,1.45
2017-12-24T21:53:01.708Z,1.62
2017-12-24T21:55:29.334Z,1.60
2017-12-24T21:57:56.967Z,1.40
2017-12-24T22:00:26.658Z,1.40
2017-12-24T22:02:55.234Z,1.30
2017-12-24T22:05:22.827Z,1.77
2017-12-24T22:07:50.422Z,1.37
2017-12-24T22:10:18.007Z,1.55
2017-12-24T22:12:45.609Z,1.65
2017-12-24T22:15:13.211Z,1.30
2017-12-24T22:17:40.797Z,1.50
2017-12-24T22:20:08.429Z,1.58
2017-12-24T22:22:36.019Z,1.70
2017-12-24T22:25:03.622Z,1.55
2017-12-24T22:27:31.220Z,1.40
2017-12-24T22:30:21.952Z,1.20
2017-12-24T22:32:49.547Z,1.48
2017-12-24T22:35:17.139Z,1.20
2017-12-24T22:37:44.730Z,1.33
2017-12-24T22:40:12.326Z,1.77
2017-12-24T22:42:39.922Z,1.33
2017-12-24T22:45:07.553Z,1.30
2017-12-24T22:47:35.149Z,1.20
2017-12-24T22:50:03.545Z,1.45
2017-12-24T22:52:31.145Z,1.35
2017-12-24T22:54:58.735Z,1.83
2017-12-24T22:57:26.606Z,1.10
2017-12-24T22:59:56.116Z,1.80
2017-12-24T23:02:24.217Z,1.55
2017-12-24T23:04:52.428Z,1.20
2017-12-24T23:07:22.151Z,1.37
2017-12-24T23:09:50.329Z,1.50
2017-12-24T23:12:18.698Z,1.52
2017-12-24T23:14:46.980Z,1.52
2017-12-24T23:17:15.042Z,1.55
2017-12-24T23:19:43.210Z,1.20
2017-12-24T23:22:11.351Z,1.23
2017-12-24T23:24:39.491Z,1.30
2017-12-24T23:27:07.579Z,1.30
2017-12-24T23:29:36.493Z,1.17
